Time;durP1;ratioP1;P1;durP2;ratioP2;P2;SDS_P1;SDS_P2;PMS_P1;PMS_P2;Temp;Humidity;BMP_temperature;BMP_pressure;BME280_temperature;BME280_humidity;BME280_pressure;Samples;Min_cycle;Max_cycle;Signal;HPM_P1;HPM_P2
2022/09/14 00:02:11;;;;;;;4.40;3.50;;;;;;;-141.28;100.00;50575.56;5093050;28;20203;-75
2022/09/14 00:04:38;;;;;;;4.50;3.70;;;;;;;-141.28;100.00;50550.06;5114473;28;20288;-73
2022/09/14 00:07:05;;;;;;;4.30;3.20;;;;;;;-141.28;100.00;50514.72;5115800;28;20215;-74
2022/09/14 00:09:32;;;;;;;6.10;3.40;;;;;;;-141.28;100.00;50483.31;5111717;28;20282;-75
2022/09/14 00:12:03;;;;;;;3.80;3.33;;;;;;;-141.28;100.00;50510.78;5111544;28;20251;-74
2022/09/14 00:14:29;;;;;;;3.70;3.40;;;;;;;-141.28;100.00;50491.16;5087863;28;20647;-75
2022/09/14 00:16:56;;;;;;;4.40;3.40;;;;;;;-141.28;100.00;50440.13;5072144;28;20200;-75
2022/09/14 00:19:24;;;;;;;4.00;3.10;;;;;;;-141.28;100.00;50463.69;5083842;28;20200;-74
2022/09/14 00:21:53;;;;;;;9.63;4.07;;;;;;;-141.28;100.00;50463.69;5079652;28;20196;-75
2022/09/14 00:24:20;;;;;;;4.37;3.37;;;;;;;-141.28;100.00;50447.97;5092193;28;20543;-76
2022/09/14 00:26:47;;;;;;;4.07;3.67;;;;;;;-141.28;100.00;50424.44;5077553;28;20298;-75
2022/09/14 00:29:16;;;;;;;8.33;3.63;;;;;;;-141.28;100.00;50444.06;5091318;28;20274;-76
2022/09/14 00:31:44;;;;;;;5.87;4.17;;;;;;;-141.28;100.00;50447.97;5071946;28;20200;-75
2022/09/14 00:34:15;;;;;;;5.10;3.80;;;;;;;-141.28;100.00;50394.97;5072174;28;20192;-76
2022/09/14 00:36:45;;;;;;;4.10;3.53;;;;;;;-141.28;100.00;50420.50;5073044;28;20207;-76
2022/09/14 00:39:14;;;;;;;5.60;4.00;;;;;;;-141.28;100.00;50385.16;5085297;28;20196;-74
2022/09/14 00:41:42;;;;;;;4.00;3.60;;;;;;;-141.28;100.00;50369.47;5088338;28;20195;-76
2022/09/14 00:44:42;;;;;;;3.80;3.50;;;;;;;-141.28;100.00;50385.16;5104039;28;20194;-77
2022/09/14 00:47:13;;;;;;;4.43;4.03;;;;;;;-141.28;100.00;50416.56;5072293;28;20224;-76
2022/09/14 00:49:44;;;;;;;5.40;4.10;;;;;;;-141.28;100.00;50381.25;5102516;28;20257;-75
2022/09/14 00:52:20;;;;;;;5.60;4.17;;;;;;;-141.28;100.00;50314.50;5080112;28;20196;-77
2022/09/14 00:54:49;;;;;;;10.30;4.20;;;;;;;-141.28;100.00;50304.69;5110110;28;20195;-76
2022/09/14 00:57:16;;;;;;;8.97;4.23;;;;;;;-141.28;100.00;50239.94;5098020;28;20191;-76
2022/09/14 00:59:45;;;;;;;5.87;4.27;;;;;;;-141.28;100.00;50208.53;5081154;28;20204;-76
2022/09/14 01:02:15;;;;;;;6.20;4.63;;;;;;;-141.28;100.00;50184.97;5097894;28;20204;-75
2022/09/14 01:04:43;;;;;;;11.27;5.73;;;;;;;-141.28;100.00;50133.94;5071534;28;20238;-76
2022/09/14 01:07:22;;;;;;;9.20;6.53;;;;;;;-141.28;100.00;50130.00;5070966;28;20256;-74
2022/09/14 01:10:00;;;;;;;8.63;5.90;;;;;;;-141.28;100.00;50137.88;5071347;28;20200;-75
2022/09/14 01:12:35;;;;;;;9.23;5.83;;;;;;;-141.28;100.00;50141.78;5070971;28;20204;-77
2022/09/14 01:15:09;;;;;;;11.50;6.87;;;;;;;-141.28;100.00;50063.28;5074761;28;20195;-76
2022/09/14 01:17:43;;;;;;;7.23;6.53;;;;;;;-141.28;100.00;50006.38;5082646;28;20669;-75
2022/09/14 01:20:24;;;;;;;8.07;7.07;;;;;;;-141.28;100.00;49939.63;5080313;28;20196;-76
2022/09/14 01:23:09;;;;;;;8.87;6.60;;;;;;;-141.28;100.00;49916.09;5093977;28;20246;-75
2022/09/14 01:26:11;;;;;;;14.23;7.47;;;;;;;-141.28;100.00;49965.16;5095294;28;20195;-74
2022/09/14 01:28:46;;;;;;;10.20;7.37;;;;;;;-141.28;100.00;49870.94;5065580;28;20211;-74
2022/09/14 01:31:20;;;;;;;10.43;7.40;;;;;;;-141.28;100.00;49721.81;5094650;28;20661;-75
2022/09/14 01:33:53;;;;;;;13.90;6.90;;;;;;;-141.28;100.00;49635.47;5105457;28;20203;-76
2022/09/14 01:36:21;;;;;;;8.63;6.97;;;;;;;-141.28;100.00;49633.50;5095082;28;20207;-76
2022/09/14 01:38:52;;;;;;;10.80;8.17;;;;;;;-141.28;100.00;49555.00;5094459;28;20199;-76
2022/09/14 01:41:24;;;;;;;11.43;5.83;;;;;;;-141.28;100.00;49525.56;5100673;28;20260;-76
2022/09/14 01:43:57;;;;;;;8.47;6.47;;;;;;;-141.28;100.00;49462.78;5113392;28;20198;-76
2022/09/14 01:46:30;;;;;;;7.47;6.20;;;;;;;-141.28;100.00;49445.13;5102071;28;20302;-76
2022/09/14 01:49:03;;;;;;;9.20;6.70;;;;;;;-141.28;100.00;49454.94;5098944;28;20275;-74
2022/09/14 01:51:36;;;;;;;17.73;7.00;;;;;;;-141.28;100.00;49423.53;5081539;28;20208;-75
2022/09/14 01:54:10;;;;;;;9.03;6.50;;;;;;;-141.28;100.00;49425.50;5084766;28;20713;-75
2022/09/14 01:56:42;;;;;;;8.10;6.50;;;;;;;-141.28;100.00;49447.06;5093787;28;20579;-74
2022/09/14 01:59:15;;;;;;;7.43;5.07;;;;;;;-141.28;100.00;49472.59;5089860;28;20223;-77
2022/09/14 02:01:49;;;;;;;9.97;5.57;;;;;;;-141.28;100.00;49502.03;5090593;28;20630;-77
2022/09/14 02:04:23;;;;;;;10.47;6.13;;;;;;;-141.28;100.00;49537.34;5093643;28;20577;-74
2022/09/14 02:06:50;;;;;;;9.53;5.37;;;;;;;-141.28;100.00;49551.06;5095929;28;20764;-75
2022/09/14 02:09:21;;;;;;;11.90;5.93;;;;;;;-141.28;100.00;49556.97;5086631;28;20666;-75
2022/09/14 02:11:48;;;;;;;6.80;4.93;;;;;;;-141.28;100.00;49537.34;5094184;28;20282;-75
2022/09/14 02:14:16;;;;;;;7.40;5.27;;;;;;;-141.28;100.00;49568.75;5107055;28;20191;-75
2022/09/14 02:16:45;;;;;;;6.30;4.80;;;;;;;-141.28;100.00;49580.50;5093397;28;20207;-74
2022/09/14 02:19:14;;;;;;;6.00;5.10;;;;;;;-141.28;100.00;49584.44;5092882;28;20197;-76
2022/09/14 02:21:41;;;;;;;6.13;5.03;;;;;;;-141.28;100.00;49553.03;5093093;28;20253;-76
2022/09/14 02:24:09;;;;;;;7.47;5.23;;;;;;;-141.28;100.00;49541.25;5102447;28;20659;-75
2022/09/14 02:26:37;;;;;;;7.17;5.10;;;;;;;-141.28;100.00;49533.41;5092493;28;20203;-75
2022/09/14 02:29:05;;;;;;;5.57;5.03;;;;;;;-141.28;100.00;49556.97;5113100;28;20248;-75
2022/09/14 02:31:46;;;;;;;5.00;4.50;;;;;;;-141.28;100.00;49549.13;5099464;28;20197;-76
2022/09/14 02:34:24;;;;;;;7.73;5.10;;;;;;;-141.28;100.00;49588.34;5113389;28;20206;-76
2022/09/14 02:37:02;;;;;;;7.67;4.73;;;;;;;-141.28;100.00;49631.53;5086524;28;20562;-77
2022/09/14 02:39:38;;;;;;;8.53;5.10;;;;;;;-141.28;100.00;49619.75;5074977;28;20211;-75
2022/09/14 02:42:17;;;;;;;8.00;5.40;;;;;;;-141.28;100.00;49607.97;5103502;28;20198;-74
2022/09/14 02:44:53;;;;;;;9.33;5.80;;;;;;;-141.28;100.00;49555.00;5081392;28;20195;-75
2022/09/14 02:47:27;;;;;;;8.00;5.90;;;;;;;-141.28;100.00;49537.34;5080865;28;20296;-75
2022/09/14 02:50:03;;;;;;;9.60;6.47;;;;;;;-141.28;100.00;49466.69;5092406;28;20203;-73
2022/09/14 02:52:34;;;;;;;11.97;7.00;;;;;;;-141.28;100.00;49384.28;5078751;28;20302;-74
2022/09/14 02:55:07;;;;;;;10.27;6.37;;;;;;;-141.28;100.00;49333.25;5083257;28;20257;-74
2022/09/14 02:58:04;;;;;;;10.13;7.10;;;;;;;-141.28;100.00;49348.97;5094641;28;20191;-77
2022/09/14 03:00:35;;;;;;;9.77;7.00;;;;;;;-141.28;100.00;49327.38;5091257;28;20244;-73
2022/09/14 03:03:04;;;;;;;9.30;7.53;;;;;;;-141.28;100.00;49274.41;5113358;28;20238;-76
2022/09/14 03:05:31;;;;;;;10.70;7.40;;;;;;;-141.28;100.00;49186.09;5114266;28;20609;-75
2022/09/14 03:07:58;;;;;;;8.57;6.90;;;;;;;-141.28;100.00;49154.72;5094890;28;20223;-78
2022/09/14 03:10:26;;;;;;;8.10;6.93;;;;;;;-141.28;100.00;49142.94;5092901;28;20191;-75
2022/09/14 03:12:53;;;;;;;10.83;7.50;;;;;;;-141.28;100.00;49156.66;5095191;28;20199;-75
2022/09/14 03:15:20;;;;;;;16.13;7.30;;;;;;;-141.28;100.00;49156.66;5112531;28;20300;-77
2022/09/14 03:17:48;;;;;;;10.60;7.50;;;;;;;-141.28;100.00;49152.75;5108001;28;20199;-74
2022/09/14 03:20:21;;;;;;;10.50;7.87;;;;;;;-141.28;100.00;49176.28;5092606;28;20215;-75
2022/09/14 03:22:48;;;;;;;9.53;7.40;;;;;;;-141.28;100.00;49144.91;5092247;28;20202;-75
2022/09/14 03:25:15;;;;;;;13.03;7.97;;;;;;;-141.28;100.00;49121.34;5092037;28;20204;-75
2022/09/14 03:27:43;;;;;;;14.70;8.23;;;;;;;-141.28;100.00;49125.28;5088986;28;20215;-74
2022/09/14 03:30:10;;;;;;;15.33;7.53;;;;;;;-141.28;100.00;49105.66;5084832;28;20200;-74
2022/09/14 03:32:39;;;;;;;11.83;7.87;;;;;;;-141.28;100.00;49095.84;5078459;28;20223;-77
2022/09/14 03:35:07;;;;;;;13.57;7.20;;;;;;;-141.28;100.00;49089.97;5092756;28;20658;-76
2022/09/14 03:37:43;;;;;;;14.27;8.10;;;;;;;-141.28;100.00;49121.34;5109094;28;20203;-78
2022/09/14 03:40:18;;;;;;;15.63;7.60;;;;;;;-141.28;100.00;49097.81;5091250;28;20910;-77
2022/09/14 03:42:47;;;;;;;15.27;8.00;;;;;;;-141.28;100.00;49133.13;5100585;28;20223;-76
2022/09/14 03:45:15;;;;;;;13.47;7.43;;;;;;;-141.28;100.00;49117.44;5093105;28;20589;-75
2022/09/14 03:47:42;;;;;;;11.23;7.27;;;;;;;-141.28;100.00;49107.63;5083340;28;20303;-79
2022/09/14 03:50:11;;;;;;;11.03;7.20;;;;;;;-141.28;100.00;49109.59;5097610;28;20195;-76
2022/09/14 03:52:40;;;;;;;10.57;7.40;;;;;;;-141.28;100.00;49099.78;5095319;28;20248;-76
2022/09/14 03:55:09;;;;;;;12.60;7.53;;;;;;;-141.28;100.00;49109.59;5102112;28;20215;-79
2022/09/14 03:57:36;;;;;;;14.07;7.80;;;;;;;-141.28;100.00;49091.91;5091223;28;20211;-71
2022/09/14 04:00:05;;;;;;;15.27;8.27;;;;;;;-141.28;100.00;49097.81;5075082;28;20197;-77
2022/09/14 04:02:32;;;;;;;11.03;6.97;;;;;;;-141.28;100.00;49093.88;5071984;28;20198;-76
2022/09/14 04:04:59;;;;;;;16.33;7.50;;;;;;;-141.28;100.00;49107.63;5104189;28;20581;-77
2022/09/14 04:07:26;;;;;;;11.97;7.00;;;;;;;-141.28;100.00;49129.19;5103998;28;20255;-77
2022/09/14 04:09:55;;;;;;;13.77;7.60;;;;;;;-141.28;100.00;49129.19;5095433;28;20248;-77
2022/09/14 04:12:21;;;;;;;9.90;7.57;;;;;;;-141.28;100.00;49121.34;5111702;28;20224;-75
2022/09/14 04:14:48;;;;;;;15.47;8.23;;;;;;;-141.28;100.00;49133.13;5085928;28;20649;-79
2022/09/14 04:17:16;;;;;;;19.67;8.67;;;;;;;-141.28;100.00;49129.19;5073297;28;20658;-76
2022/09/14 04:19:43;;;;;;;15.93;8.37;;;;;;;-141.28;100.00;49140.97;5076596;28;20282;-76
2022/09/14 04:22:10;;;;;;;18.80;7.90;;;;;;;-141.28;100.00;49162.56;5073502;28;20203;-79
2022/09/14 04:24:37;;;;;;;13.67;8.17;;;;;;;-141.28;100.00;49137.06;5075866;28;20212;-76
2022/09/14 04:27:07;;;;;;;22.40;8.97;;;;;;;-141.28;100.00;49137.06;5072979;28;20241;-78
2022/09/14 04:29:34;;;;;;;19.63;9.53;;;;;;;-141.28;100.00;49135.09;5077094;28;20618;-77
2022/09/14 04:32:01;;;;;;;17.30;8.80;;;;;;;-141.28;100.00;49113.50;5055240;28;20207;-78
2022/09/14 04:34:29;;;;;;;16.40;8.20;;;;;;;-141.28;100.00;49150.78;5078966;28;20621;-78
2022/09/14 04:36:56;;;;;;;16.73;7.90;;;;;;;-141.28;100.00;49142.94;5064554;28;20207;-79
2022/09/14 04:39:24;;;;;;;12.47;8.10;;;;;;;-141.28;100.00;49152.75;5077578;28;20269;-76
2022/09/14 04:41:51;;;;;;;19.93;8.80;;;;;;;-141.28;100.00;49154.72;5073376;28;20207;-77
2022/09/14 04:44:20;;;;;;;18.80;8.50;;;;;;;-141.28;100.00;49180.22;5080493;28;20371;-78
2022/09/14 04:46:48;;;;;;;16.87;8.10;;;;;;;-141.28;100.00;49158.63;5079930;28;20221;-76
2022/09/14 04:49:17;;;;;;;23.10;8.17;;;;;;;-141.28;100.00;49184.13;5077548;28;20228;-76
2022/09/14 04:51:45;;;;;;;20.73;7.77;;;;;;;-141.28;100.00;49209.66;5093455;28;20208;-77
2022/09/14 04:54:15;;;;;;;24.00;9.03;;;;;;;-141.28;100.00;49207.69;5087255;28;20650;-76
2022/09/14 04:56:41;;;;;;;14.30;8.10;;;;;;;-141.28;100.00;49203.75;5095340;28;20204;-77
2022/09/14 04:59:09;;;;;;;16.90;8.30;;;;;;;-141.28;100.00;49192.00;5078063;28;20204;-76
2022/09/14 05:01:39;;;;;;;18.67;8.60;;;;;;;-141.28;100.00;49235.16;5092328;28;20195;-78
2022/09/14 05:04:08;;;;;;;13.73;7.97;;;;;;;-141.28;100.00;49229.28;5094874;28;20227;-77
2022/09/14 05:06:41;;;;;;;8.60;7.30;;;;;;;-141.28;100.00;49223.38;5090286;28;20200;-78
2022/09/14 05:09:13;;;;;;;9.77;7.13;;;;;;;-141.28;100.00;49223.38;5074982;28;20228;-76
2022/09/14 05:11:41;;;;;;;10.60;7.83;;;;;;;-141.28;100.00;49250.84;5075400;28;20207;-76
2022/09/14 05:14:11;;;;;;;12.50;6.77;;;;;;;-141.28;100.00;49290.09;5089784;28;20203;-76
2022/09/14 05:16:40;;;;;;;10.30;7.53;;;;;;;-141.28;100.00;49311.69;5075288;28;20200;-78
2022/09/14 05:19:11;;;;;;;19.20;7.80;;;;;;;-141.28;100.00;49319.53;5091209;28;20259;-77
2022/09/14 05:21:38;;;;;;;11.10;6.80;;;;;;;-141.28;100.00;49364.66;5087217;28;20196;-79
2022/09/14 05:24:11;;;;;;;11.33;7.00;;;;;;;-141.28;100.00;49396.06;5075315;28;20203;-76
2022/09/14 05:26:38;;;;;;;11.23;7.13;;;;;;;-141.28;100.00;49396.06;5075143;28;20609;-77
2022/09/14 05:29:05;;;;;;;10.40;7.17;;;;;;;-141.28;100.00;49384.28;5092801;28;20223;-77
2022/09/14 05:31:34;;;;;;;13.20;6.77;;;;;;;-141.28;100.00;49407.84;5085131;28;20226;-78
2022/09/14 05:34:02;;;;;;;8.73;6.73;;;;;;;-141.28;100.00;49458.84;5077410;28;20269;-78
2022/09/14 05:36:29;;;;;;;10.37;6.53;;;;;;;-141.28;100.00;49513.78;5074888;28;20257;-77
2022/09/14 05:38:57;;;;;;;9.77;6.03;;;;;;;-141.28;100.00;49584.44;5075057;28;20204;-78
2022/09/14 05:41:24;;;;;;;11.63;6.90;;;;;;;-141.28;100.00;49670.78;5074624;28;20196;-77
2022/09/14 05:43:51;;;;;;;12.70;7.07;;;;;;;-141.28;100.00;49776.75;5080990;28;20654;-77
2022/09/14 05:46:19;;;;;;;15.07;6.63;;;;;;;-141.28;100.00;49890.56;5082516;28;20212;-76
2022/09/14 05:48:50;;;;;;;17.90;7.47;;;;;;;-141.28;100.00;49904.31;5076193;28;20246;-77
2022/09/14 05:51:20;;;;;;;16.10;7.40;;;;;;;-141.28;100.00;50043.66;5089046;28;20210;-78
2022/09/14 05:53:50;;;;;;;20.13;7.40;;;;;;;-141.28;100.00;50147.69;5086935;28;20677;-77
2022/09/14 05:56:19;;;;;;;17.57;7.10;;;;;;;-141.28;100.00;50326.28;5089437;28;20192;-79
2022/09/14 05:58:47;;;;;;;13.37;6.50;;;;;;;-141.28;100.00;50342.00;5076431;28;20238;-76
2022/09/14 06:01:16;;;;;;;11.63;5.60;;;;;;;-141.28;100.00;50530.41;5073835;28;20335;-76
2022/09/14 06:03:44;;;;;;;16.53;6.70;;;;;;;-141.28;100.00;50707.09;5073110;28;20683;-79
2022/09/14 06:06:12;;;;;;;12.80;7.10;;;;;;;-141.28;100.00;50838.63;5076679;28;20244;-78
2022/09/14 06:08:43;;;;;;;17.00;7.17;;;;;;;-141.28;100.00;50981.91;5066756;28;20227;-76
2022/09/14 06:11:13;;;;;;;12.77;6.37;;;;;;;-141.28;100.00;51127.19;5094812;28;20199;-78
2022/09/14 06:13:41;;;;;;;13.23;6.70;;;;;;;-141.28;100.00;51270.50;5115292;28;20195;-74
2022/09/14 06:16:10;;;;;;;18.53;6.77;;;;;;;-141.28;100.00;51394.22;5111189;28;20196;-78
2022/09/14 06:18:39;;;;;;;17.20;7.80;;;;;;;-141.28;100.00;51633.75;5081434;28;20195;-78
2022/09/14 06:21:07;;;;;;;21.50;8.77;;;;;;;-141.28;100.00;51612.16;5082037;28;20659;-78
2022/09/14 06:23:35;;;;;;;17.40;7.00;;;;;;;-141.28;100.00;51759.41;5074631;28;20298;-82
2022/09/14 06:26:06;;;;;;;11.93;6.50;;;;;;;-141.28;100.00;51773.16;5093135;28;20203;-78
2022/09/14 06:28:35;;;;;;;18.83;7.03;;;;;;;-141.28;100.00;51735.84;5106957;28;20227;-77
2022/09/14 06:31:03;;;;;;;14.30;6.60;;;;;;;-141.28;100.00;51790.84;5093837;28;20198;-77
2022/09/14 06:33:31;;;;;;;9.77;5.80;;;;;;;-141.28;100.00;51802.63;5097874;28;20282;-77
2022/09/14 06:36:00;;;;;;;12.23;5.80;;;;;;;-141.28;100.00;51712.28;5101381;28;20234;-78
2022/09/14 06:38:29;;;;;;;9.50;5.47;;;;;;;-141.28;100.00;51496.31;5112149;28;20203;-77
2022/09/14 06:40:57;;;;;;;9.43;5.57;;;;;;;-141.28;100.00;51260.69;5100746;28;20222;-75
2022/09/14 06:43:26;;;;;;;12.97;4.87;;;;;;;-141.28;100.00;51184.13;5100540;28;20306;-77
2022/09/14 06:45:58;;;;;;;8.87;5.30;;;;;;;-141.28;100.00;51087.94;5121535;28;20222;-77
2022/09/14 06:48:25;;;;;;;17.20;5.67;;;;;;;-141.28;100.00;51009.41;5105999;28;20215;-76
2022/09/14 06:50:52;;;;;;;15.30;6.10;;;;;;;-141.28;100.00;51031.00;5113641;28;20195;-79
2022/09/14 06:53:19;;;;;;;12.93;5.77;;;;;;;-141.28;100.00;51017.25;5105558;28;20199;-76
2022/09/14 06:55:48;;;;;;;11.27;5.27;;;;;;;-141.28;100.00;50952.47;5106674;28;20195;-77
2022/09/14 06:58:15;;;;;;;15.00;5.80;;;;;;;-141.28;100.00;50983.88;5106471;28;20267;-77
2022/09/14 07:00:43;;;;;;;12.03;5.33;;;;;;;-141.28;100.00;50773.81;5073317;28;20207;-79
2022/09/14 07:03:10;;;;;;;10.10;4.77;;;;;;;-141.28;100.00;50524.53;5072802;28;20231;-77
2022/09/14 07:05:37;;;;;;;10.60;4.90;;;;;;;-141.28;100.00;50145.72;5072755;28;20220;-78
2022/09/14 07:08:04;;;;;;;8.43;4.57;;;;;;;-141.28;100.00;50039.72;5081588;28;20195;-76
2022/09/14 07:10:32;;;;;;;6.00;4.50;;;;;;;-141.28;100.00;50031.88;5101227;28;20673;-79
2022/09/14 07:13:00;;;;;;;5.40;3.97;;;;;;;-141.28;100.00;50412.66;5110066;28;20193;-79
2022/09/14 07:15:27;;;;;;;8.50;4.37;;;;;;;-141.28;100.00;50369.47;5112079;28;20241;-77
2022/09/14 07:17:55;;;;;;;7.43;4.57;;;;;;;-141.28;100.00;50271.31;5106537;28;20565;-79
2022/09/14 07:20:22;;;;;;;12.43;5.13;;;;;;;-141.28;100.00;50220.28;5092856;28;20565;-79
2022/09/14 07:22:49;;;;;;;9.97;4.63;;;;;;;-141.28;100.00;50145.72;5091780;28;20196;-76
2022/09/14 07:25:17;;;;;;;7.43;4.33;;;;;;;-141.28;100.00;50184.97;5091823;28;20199;-78
2022/09/14 07:27:43;;;;;;;6.63;4.03;;;;;;;-141.28;100.00;50094.69;5097254;28;20187;-77
2022/09/14 07:30:12;;;;;;;9.47;4.40;;;;;;;-141.28;100.00;50114.31;5112475;28;20302;-78
2022/09/14 07:32:39;;;;;;;8.63;4.37;;;;;;;-141.28;100.00;50039.72;5079338;28;20400;-79
2022/09/14 07:35:09;;;;;;;5.90;4.20;;;;;;;-141.28;100.00;50020.09;5091271;28;20200;-77
2022/09/14 07:37:37;;;;;;;9.50;4.10;;;;;;;-141.28;100.00;49961.22;5072885;28;20321;-78
2022/09/14 07:40:05;;;;;;;9.03;4.13;;;;;;;-141.28;100.00;49918.06;5072287;28;20192;-79
2022/09/14 07:42:32;;;;;;;9.47;3.87;;;;;;;-141.28;100.00;49823.84;5071775;28;20563;-79
2022/09/14 07:44:59;;;;;;;8.20;4.13;;;;;;;-141.28;100.00;49662.94;5072408;28;20200;-78
2022/09/14 07:47:26;;;;;;;10.57;3.73;;;;;;;-141.28;100.00;49678.63;5072437;28;20192;-77
2022/09/14 07:49:55;;;;;;;5.30;4.20;;;;;;;-141.28;100.00;49686.47;5085704;28;20238;-78
2022/09/14 07:52:25;;;;;;;9.60;4.07;;;;;;;-141.28;100.00;49676.66;5080977;28;20679;-77
2022/09/14 07:54:52;;;;;;;9.37;3.63;;;;;;;-141.28;100.00;49592.28;5091097;28;20249;-80
2022/09/14 07:57:19;;;;;;;5.03;3.53;;;;;;;-141.28;100.00;49659.00;5100924;28;20190;-77
2022/09/14 07:59:46;;;;;;;6.23;3.73;;;;;;;-141.28;100.00;49617.78;5080069;28;20621;-76
2022/09/14 08:02:13;;;;;;;6.10;3.70;;;;;;;-141.28;100.00;49549.13;5063553;28;20586;-76
2022/09/14 08:04:41;;;;;;;12.53;3.70;;;;;;;-141.28;100.00;49525.56;5078490;28;20220;-77
2022/09/14 08:07:09;;;;;;;7.27;3.60;;;;;;;-141.28;100.00;49492.22;5101810;28;20191;-77
2022/09/14 08:09:38;;;;;;;7.30;3.53;;;;;;;-141.28;100.00;49513.78;5093428;28;20303;-78
2022/09/14 08:12:05;;;;;;;5.80;3.37;;;;;;;-141.28;100.00;49819.94;5080903;28;20200;-77
2022/09/14 08:14:32;;;;;;;6.60;3.50;;;;;;;-141.28;100.00;49631.53;5090473;28;20194;-76
2022/09/14 08:16:59;;;;;;;5.80;3.60;;;;;;;-141.28;100.00;49527.53;5099472;28;20196;-76
2022/09/14 08:19:26;;;;;;;6.80;3.70;;;;;;;-141.28;100.00;49517.72;5097957;28;20239;-79
2022/09/14 08:21:53;;;;;;;10.10;3.87;;;;;;;-141.28;100.00;49376.44;5103315;28;20280;-78
2022/09/14 08:24:21;;;;;;;6.43;3.67;;;;;;;-141.28;100.00;49325.41;5106080;28;20589;-80
2022/09/14 08:26:50;;;;;;;7.47;3.90;;;;;;;-141.28;100.00;49305.78;5094687;28;20207;-80
2022/09/14 08:29:18;;;;;;;5.67;3.60;;;;;;;-141.28;100.00;49221.41;5077599;28;20286;-78
2022/09/14 08:31:46;;;;;;;10.60;3.53;;;;;;;-141.28;100.00;49203.75;5105024;28;20209;-77
2022/09/14 08:34:14;;;;;;;7.20;3.50;;;;;;;-141.28;100.00;49199.84;5084547;28;20274;-76
2022/09/14 08:36:42;;;;;;;5.80;3.63;;;;;;;-141.28;100.00;49262.63;5109870;28;20199;-80
2022/09/14 08:39:12;;;;;;;5.70;4.07;;;;;;;-141.28;100.00;49278.31;5097874;28;20669;-78
2022/09/14 08:41:48;;;;;;;7.53;3.57;;;;;;;-141.28;100.00;49264.59;5095133;28;20684;-78
2022/09/14 08:44:20;;;;;;;4.13;3.30;;;;;;;-141.28;100.00;49244.97;5099601;28;20194;-77
2022/09/14 08:46:49;;;;;;;22.33;11.63;;;;;;;-141.28;100.00;49144.91;5109671;28;20211;-78
2022/09/14 08:49:37;;;;;;;6.83;3.80;;;;;;;-141.28;100.00;49133.13;5110879;28;20219;-80
2022/09/14 08:52:05;;;;;;;6.70;3.93;;;;;;;-141.28;100.00;49239.09;5097542;28;20192;-79
2022/09/14 08:54:33;;;;;;;13.13;3.83;;;;;;;-141.28;100.00;49474.53;5085300;28;20203;-76
2022/09/14 08:57:08;;;;;;;8.87;3.30;;;;;;;-141.28;100.00;49121.34;5073388;28;20254;-77
2022/09/14 08:59:47;;;;;;;7.33;3.77;;;;;;;-141.28;100.00;49211.59;5074261;28;20226;-78
2022/09/14 09:02:52;;;;;;;6.93;3.53;;;;;;;-141.28;100.00;49080.16;5073519;28;20224;-79
2022/09/14 09:05:35;;;;;;;8.93;3.87;;;;;;;-141.28;100.00;49033.06;5073041;28;20675;-78
2022/09/14 09:08:10;;;;;;;7.17;3.73;;;;;;;-141.28;100.00;48982.03;5086865;28;20287;-77
2022/09/14 09:10:38;;;;;;;7.17;3.90;;;;;;;-141.28;100.00;48991.84;5072960;28;20227;-78
2022/09/14 09:13:06;;;;;;;10.03;3.77;;;;;;;-141.28;100.00;48950.66;5086314;28;20675;-77
2022/09/14 09:15:42;;;;;;;10.23;3.77;;;;;;;-141.28;100.00;48948.69;5072910;28;20209;-77
2022/09/14 09:18:22;;;;;;;9.10;3.80;;;;;;;-141.28;100.00;48954.59;5089331;28;20787;-76
2022/09/14 09:20:52;;;;;;;5.93;3.57;;;;;;;-141.28;100.00;49003.63;5087088;28;20259;-78
2022/09/14 09:23:22;;;;;;;9.17;4.00;;;;;;;-141.28;100.00;48984.00;5110646;28;20227;-77
2022/09/14 09:25:55;;;;;;;7.37;3.73;;;;;;;-141.28;100.00;48991.84;5104504;28;20201;-78
2022/09/14 09:28:23;;;;;;;6.13;3.73;;;;;;;-141.28;100.00;48980.09;5104070;28;20668;-77
2022/09/14 09:30:53;;;;;;;10.27;4.17;;;;;;;-141.28;100.00;48982.03;5103977;28;20223;-81
2022/09/14 09:33:23;;;;;;;5.03;3.60;;;;;;;-141.28;100.00;49027.19;5106669;28;20222;-78
2022/09/14 09:35:51;;;;;;;6.70;3.90;;;;;;;-141.28;100.00;48980.09;5103472;28;20220;-80
2022/09/14 09:38:23;;;;;;;11.03;3.53;;;;;;;-141.28;100.00;48964.38;5108145;28;20570;-78
2022/09/14 09:40:53;;;;;;;9.77;3.60;;;;;;;-141.28;100.00;49009.50;5102476;28;20207;-77
2022/09/14 09:43:21;;;;;;;7.03;3.93;;;;;;;-141.28;100.00;48921.22;5109480;28;20631;-77
2022/09/14 09:45:54;;;;;;;5.70;3.93;;;;;;;-141.28;100.00;48976.16;5110107;28;20310;-77
2022/09/14 09:48:26;;;;;;;14.30;4.17;;;;;;;-141.28;100.00;48948.69;5109417;28;20199;-79
2022/09/14 09:51:05;;;;;;;7.80;3.83;;;;;;;-141.28;100.00;48921.22;5113146;28;20229;-80
2022/09/14 09:53:34;;;;;;;7.20;4.03;;;;;;;-141.28;100.00;48901.59;5107805;28;20237;-79
2022/09/14 09:56:03;;;;;;;6.57;3.43;;;;;;;-141.28;100.00;48911.41;5108291;28;20641;-77
2022/09/14 09:58:33;;;;;;;7.50;3.63;;;;;;;-141.28;100.00;48897.69;5108055;28;20283;-77
2022/09/14 10:01:05;;;;;;;5.87;3.87;;;;;;;-141.28;100.00;48850.59;5113095;28;20200;-77
2022/09/14 10:03:35;;;;;;;8.33;3.93;;;;;;;-141.28;100.00;48909.47;5101750;28;20390;-79
2022/09/14 10:06:06;;;;;;;8.20;3.70;;;;;;;-141.28;100.00;48911.41;5105106;28;20225;-79
2022/09/14 10:08:34;;;;;;;9.00;4.10;;;;;;;-141.28;100.00;48783.91;5103281;28;20187;-81
2022/09/14 10:11:03;;;;;;;5.23;3.63;;;;;;;-141.28;100.00;48905.53;5105131;28;20251;-80
2022/09/14 10:13:32;;;;;;;6.40;3.60;;;;;;;-141.28;100.00;48885.91;5086309;28;20208;-80
2022/09/14 10:16:14;;;;;;;5.40;4.10;;;;;;;-141.28;100.00;48787.81;5078705;28;20195;-78
2022/09/14 10:18:46;;;;;;;7.97;3.80;;;;;;;-141.28;100.00;48883.94;5095176;28;20287;-81
2022/09/14 10:21:15;;;;;;;7.37;3.87;;;;;;;-141.28;100.00;48885.91;5082486;28;20658;-78
2022/09/14 10:23:43;;;;;;;22.00;4.53;;;;;;;-141.28;98.39;48872.19;5085171;28;20208;-80
2022/09/14 10:26:20;;;;;;;14.97;3.93;;;;;;;-141.28;91.26;48832.94;5095543;28;20719;-79
2022/09/14 10:28:50;;;;;;;11.17;4.33;;;;;;;-141.28;92.51;49192.00;5099999;28;20196;-77
2022/09/14 10:31:26;;;;;;;7.70;3.60;;;;;;;-141.28;83.49;48811.34;5100133;28;20231;-78
2022/09/14 10:33:57;;;;;;;7.50;3.43;;;;;;;-141.28;85.18;48783.91;5095614;28;20192;-78
2022/09/14 10:36:28;;;;;;;6.10;3.80;;;;;;;-141.28;82.56;48832.94;5095356;28;20198;-78
2022/09/14 10:39:01;;;;;;;4.13;3.23;;;;;;;-141.28;85.15;48832.94;5082490;28;20716;-80
2022/09/14 10:41:34;;;;;;;8.10;4.00;;;;;;;-141.28;87.21;48811.34;5092475;28;20688;-79
2022/09/14 10:44:22;;;;;;;11.50;4.10;;;;;;;-141.28;80.83;48803.50;5093047;28;20192;-79
2022/09/14 10:47:04;;;;;;;9.33;3.77;;;;;;;-141.28;81.44;48823.13;5103119;28;20222;-79
2022/09/14 10:49:46;;;;;;;9.00;3.70;;;;;;;-141.28;76.14;48772.13;5091901;28;20227;-80
2022/09/14 10:52:21;;;;;;;8.40;4.10;;;;;;;-141.28;77.93;48779.97;5089027;28;20290;-79
2022/09/14 10:55:10;;;;;;;7.47;3.53;;;;;;;-141.28;73.38;48756.44;5113652;28;20223;-79
2022/09/14 10:57:48;;;;;;;10.40;3.90;;;;;;;-141.28;75.11;48776.03;5113391;28;20204;-78
2022/09/14 11:00:18;;;;;;;5.40;4.07;;;;;;;-141.28;72.44;48787.81;5072992;28;20206;-80
2022/09/14 11:03:09;;;;;;;4.80;3.37;;;;;;;-141.28;69.35;48754.47;5073892;28;20203;-79
2022/09/14 11:05:38;;;;;;;11.23;4.07;;;;;;;-141.28;68.39;48783.91;5091542;28;20707;-78
2022/09/14 11:08:15;;;;;;;16.53;4.27;;;;;;;-141.28;66.30;48768.19;5080045;28;20339;-80
2022/09/14 11:10:53;;;;;;;5.17;3.70;;;;;;;-141.28;65.97;48764.28;5079151;28;20304;-78
2022/09/14 11:13:52;;;;;;;10.77;4.70;;;;;;;-141.28;67.40;48760.34;5096945;28;20222;-80
2022/09/14 11:16:46;;;;;;;5.70;3.87;;;;;;;-141.28;64.49;48758.38;5085917;28;20568;-77
2022/09/14 11:19:22;;;;;;;5.53;3.33;;;;;;;-141.28;63.10;48762.31;5090114;28;20207;-79
2022/09/14 11:21:56;;;;;;;6.50;3.73;;;;;;;-141.28;67.42;48756.44;5105696;28;20547;-81
2022/09/14 11:24:25;;;;;;;4.97;3.10;;;;;;;-141.28;66.50;48791.75;5104177;28;20212;-82